Terminal Aerodrome Forecast
Issued by NWS

Home | Current Version | Previous Version | Text Only | Print | Product List | Glossary On
Versions: 1 2 3 4 5 6 7 8 9 10 11 12 13 14
000
FTUS46 KMFR 201000 AAA
TAFRBG
TAF AMD
KRBG 201002Z 2010/2106 35005KT P6SM SKC
     FM201100 VRB03KT P6SM BKN040
     FM201500 00000KT P6SM BKN025
     FM201800 01005KT P6SM SKC
     FM202000 35010G18KT P6SM SKC
     FM210500 35004KT P6SM SKC=

USA.gov is the U.S. government's official web portal to all federal, state and local government web resources and services.